createdAt,value
2023-05-10T00:01:38.145Z,2.25
2023-05-10T00:04:28.482Z,2.63
2023-05-10T00:07:18.141Z,2.30
2023-05-10T00:10:06.334Z,2.60
2023-05-10T00:12:53.908Z,2.25
2023-05-10T00:15:41.492Z,2.22
2023-05-10T00:18:28.983Z,2.28
2023-05-10T00:21:16.539Z,2.75
2023-05-10T00:24:04.402Z,2.37
2023-05-10T00:26:51.870Z,2.10
2023-05-10T00:29:39.326Z,2.08
2023-05-10T00:32:26.950Z,2.70
2023-05-10T00:35:14.560Z,2.30
2023-05-10T00:38:02.037Z,2.03
2023-05-10T00:40:49.535Z,2.60
2023-05-10T00:43:37.047Z,2.65
2023-05-10T00:46:26.095Z,3.30
2023-05-10T00:49:14.084Z,2.70
2023-05-10T00:52:03.021Z,2.30
2023-05-10T00:54:53.597Z,2.28
2023-05-10T00:57:41.393Z,2.00
2023-05-10T01:00:29.023Z,2.50
2023-05-10T01:03:16.556Z,2.63
2023-05-10T01:06:04.531Z,2.38
2023-05-10T01:08:52.351Z,2.92
2023-05-10T01:11:41.590Z,2.30
2023-05-10T01:14:30.223Z,2.80
2023-05-10T01:17:19.610Z,2.90
2023-05-10T01:20:10.461Z,2.57
2023-05-10T01:23:28.751Z,1.97
2023-05-10T01:26:48.826Z,2.90
2023-05-10T01:30:13.554Z,2.70
2023-05-10T01:33:40.182Z,2.75
2023-05-10T01:36:52.405Z,2.43
2023-05-10T01:39:39.868Z,2.60
2023-05-10T01:42:37.343Z,2.63
2023-05-10T01:45:35.040Z,2.20
2023-05-10T01:48:24.362Z,2.40
2023-05-10T01:51:13.217Z,2.53
2023-05-10T01:54:04.974Z,1.90
2023-05-10T01:57:04.345Z,2.30
2023-05-10T01:59:53.641Z,2.27
2023-05-10T02:02:47.214Z,2.37
2023-05-10T02:05:37.245Z,2.80
2023-05-10T02:08:26.771Z,2.00
2023-05-10T02:11:15.592Z,3.00
2023-05-10T02:14:04.692Z,3.00
2023-05-10T02:16:56.612Z,2.07
2023-05-10T02:19:48.037Z,2.10
2023-05-10T02:22:38.262Z,2.47
2023-05-10T02:25:28.188Z,2.77
2023-05-10T02:28:18.224Z,3.37
2023-05-10T02:31:08.565Z,3.10
2023-05-10T02:33:58.242Z,3.07
2023-05-10T02:36:46.082Z,3.20
2023-05-10T02:39:34.922Z,2.87
2023-05-10T02:42:30.327Z,2.83
2023-05-10T02:45:23.402Z,2.87
2023-05-10T02:48:11.609Z,3.40
2023-05-10T02:51:08.256Z,3.43
2023-05-10T02:53:58.555Z,3.73
2023-05-10T02:56:54.958Z,3.27
2023-05-10T02:59:43.963Z,4.17
2023-05-10T03:02:32.221Z,3.33
2023-05-10T03:05:20.749Z,3.57
2023-05-10T03:08:08.759Z,3.20
2023-05-10T03:11:40.776Z,3.93
2023-05-10T03:14:44.578Z,3.47
2023-05-10T03:17:44.760Z,3.07
2023-05-10T03:20:47.229Z,3.73
2023-05-10T03:23:47.876Z,4.33
2023-05-10T03:26:38.317Z,3.57
2023-05-10T03:29:29.082Z,3.70
2023-05-10T03:32:16.575Z,4.03
2023-05-10T03:35:15.344Z,4.17
2023-05-10T03:38:03.203Z,4.33
2023-05-10T03:40:50.658Z,4.87
2023-05-10T03:43:38.315Z,5.07
2023-05-10T03:46:25.789Z,4.70
2023-05-10T03:49:13.579Z,4.77
2023-05-10T03:52:01.182Z,4.87
2023-05-10T03:54:48.638Z,4.17
2023-05-10T03:57:36.501Z,4.43
2023-05-10T04:00:24.009Z,4.87
2023-05-10T04:03:13.004Z,4.27
2023-05-10T04:06:03.012Z,3.57
2023-05-10T04:08:50.654Z,3.10
2023-05-10T04:11:38.117Z,3.27
2023-05-10T04:14:25.684Z,3.40
2023-05-10T04:17:13.246Z,3.53
2023-05-10T04:20:00.742Z,3.20
2023-05-10T04:22:48.242Z,2.80
2023-05-10T04:25:36.672Z,2.97
2023-05-10T04:28:24.222Z,2.80
2023-05-10T04:31:12.073Z,2.80
2023-05-10T04:33:59.589Z,2.55
2023-05-10T04:36:47.116Z,2.30
2023-05-10T04:39:34.621Z,3.08
2023-05-10T04:42:22.086Z,2.97
2023-05-10T04:45:10.764Z,1.87
2023-05-10T04:47:58.248Z,2.57
2023-05-10T04:50:45.799Z,2.23
2023-05-10T04:53:33.680Z,2.30
2023-05-10T04:56:21.161Z,2.33
2023-05-10T04:59:08.681Z,2.80
2023-05-10T05:01:56.312Z,2.87
2023-05-10T05:04:43.969Z,2.13
2023-05-10T05:07:31.877Z,2.47
2023-05-10T05:10:19.651Z,2.25
2023-05-10T05:13:07.349Z,3.33
2023-05-10T05:15:56.179Z,2.93
2023-05-10T05:18:43.641Z,3.27
2023-05-10T05:21:31.149Z,2.67
2023-05-10T05:24:18.589Z,2.83
2023-05-10T05:27:07.082Z,2.80
2023-05-10T05:29:57.996Z,2.92
2023-05-10T05:32:45.649Z,3.30
2023-05-10T05:35:33.076Z,3.37
2023-05-10T05:38:20.598Z,3.20
2023-05-10T05:41:08.078Z,3.35
2023-05-10T05:43:55.683Z,3.30
2023-05-10T05:46:43.131Z,3.33
2023-05-10T05:49:31.111Z,2.67
2023-05-10T05:52:18.810Z,3.13
2023-05-10T05:55:06.577Z,3.03
2023-05-10T05:57:54.946Z,3.28
2023-05-10T06:00:42.874Z,2.92
2023-05-10T06:03:30.465Z,4.55
2023-05-10T06:06:17.934Z,3.10
2023-05-10T06:09:05.683Z,3.78
2023-05-10T06:11:53.290Z,3.72
2023-05-10T06:14:40.812Z,3.75
2023-05-10T06:17:28.695Z,3.20
2023-05-10T06:20:17.071Z,3.85
2023-05-10T06:23:04.512Z,3.65
2023-05-10T06:25:53.077Z,3.38
2023-05-10T06:28:41.153Z,3.10
2023-05-10T06:31:28.693Z,3.05
2023-05-10T06:34:16.181Z,3.70
2023-05-10T06:37:04.682Z,4.18
2023-05-10T06:39:54.652Z,3.08
2023-05-10T06:42:42.373Z,3.30
2023-05-10T06:45:29.890Z,2.90
2023-05-10T06:48:17.454Z,2.97
2023-05-10T06:51:05.179Z,2.88
2023-05-10T06:53:52.709Z,2.85
2023-05-10T06:56:40.149Z,3.00
2023-05-10T06:59:27.626Z,3.50
2023-05-10T07:02:16.191Z,3.42
2023-05-10T07:05:04.016Z,2.85
2023-05-10T07:07:52.712Z,3.35
2023-05-10T07:10:40.207Z,2.92
2023-05-10T07:13:27.685Z,3.33
2023-05-10T07:16:15.301Z,2.88
2023-05-10T07:19:03.394Z,3.28
2023-05-10T07:21:52.064Z,2.70
2023-05-10T07:24:39.562Z,2.90
2023-05-10T07:27:27.113Z,3.53
2023-05-10T07:30:15.073Z,2.87
2023-05-10T07:33:02.584Z,3.85
2023-05-10T07:35:51.162Z,2.80
2023-05-10T07:38:40.819Z,2.93
2023-05-10T07:41:28.600Z,3.43
2023-05-10T07:44:16.377Z,3.15
2023-05-10T07:47:03.940Z,3.42
2023-05-10T07:49:51.469Z,3.10
2023-05-10T07:52:38.941Z,3.33
2023-05-10T07:55:27.407Z,3.45
2023-05-10T07:58:14.831Z,3.30
2023-05-10T08:01:02.515Z,3.67
2023-05-10T08:03:51.770Z,2.70
2023-05-10T08:06:39.300Z,2.58
2023-05-10T08:09:26.775Z,2.63
2023-05-10T08:12:14.335Z,2.70
2023-05-10T08:15:01.805Z,2.63
2023-05-10T08:17:49.395Z,3.63
2023-05-10T08:20:36.930Z,2.88
2023-05-10T08:23:24.395Z,2.95
2023-05-10T08:26:12.278Z,2.67
2023-05-10T08:29:00.207Z,2.60
2023-05-10T08:31:47.744Z,2.78
2023-05-10T08:34:35.299Z,3.25
2023-05-10T08:37:24.879Z,2.90
2023-05-10T08:40:13.565Z,3.33
2023-05-10T08:43:12.469Z,3.00
2023-05-10T08:46:06.362Z,2.42
2023-05-10T08:48:57.241Z,2.70
2023-05-10T08:51:51.137Z,2.70
2023-05-10T08:54:39.325Z,2.73
2023-05-10T08:57:27.482Z,3.05
2023-05-10T09:00:16.833Z,2.80
2023-05-10T09:03:06.712Z,2.90
2023-05-10T09:05:57.067Z,2.97
2023-05-10T09:08:46.166Z,3.13
2023-05-10T09:11:34.047Z,2.67
2023-05-10T09:14:21.852Z,3.90
2023-05-10T09:17:11.207Z,3.67
2023-05-10T09:20:05.732Z,2.93
2023-05-10T09:22:53.234Z,3.70
2023-05-10T09:25:43.385Z,3.47
2023-05-10T09:28:54.060Z,2.40
2023-05-10T09:31:49.297Z,2.83
2023-05-10T09:34:41.022Z,2.90
2023-05-10T09:37:31.593Z,3.35
2023-05-10T09:40:25.359Z,4.13
2023-05-10T09:43:14.458Z,2.85
2023-05-10T09:46:12.358Z,2.67
2023-05-10T09:49:00.216Z,3.58
2023-05-10T09:51:47.759Z,3.22
2023-05-10T09:54:36.276Z,3.08
2023-05-10T09:57:27.062Z,3.92
2023-05-10T10:00:21.744Z,2.67
2023-05-10T10:03:22.229Z,2.40
2023-05-10T10:06:18.921Z,2.92
2023-05-10T10:09:10.854Z,3.25
2023-05-10T10:11:58.706Z,3.20
2023-05-10T10:14:51.408Z,2.85
2023-05-10T10:17:42.129Z,2.55
2023-05-10T10:20:30.091Z,2.80
2023-05-10T10:23:18.005Z,2.95
2023-05-10T10:26:07.151Z,2.85
2023-05-10T10:29:35.858Z,2.75
2023-05-10T10:33:20.126Z,3.15
2023-05-10T10:36:16.533Z,2.80
2023-05-10T10:39:11.976Z,2.70
2023-05-10T10:42:01.085Z,2.92
2023-05-10T10:44:48.622Z,2.95
2023-05-10T10:47:38.274Z,3.42
2023-05-10T10:50:25.805Z,3.40
2023-05-10T10:53:14.309Z,3.13
2023-05-10T10:56:14.766Z,3.45
2023-05-10T10:59:02.940Z,3.50
2023-05-10T11:01:53.561Z,3.38
2023-05-10T11:04:47.725Z,3.17
2023-05-10T11:07:35.892Z,3.28
2023-05-10T11:10:25.205Z,3.70
2023-05-10T11:13:12.812Z,3.35
2023-05-10T11:16:21.062Z,3.60
2023-05-10T11:19:12.985Z,4.00
2023-05-10T11:22:06.656Z,3.28
2023-05-10T11:25:00.348Z,3.15
2023-05-10T11:27:49.697Z,3.40
2023-05-10T11:30:39.835Z,3.00
2023-05-10T11:33:27.349Z,2.75
2023-05-10T11:36:29.972Z,3.13
2023-05-10T11:39:17.753Z,3.75
2023-05-10T11:42:05.452Z,2.92
2023-05-10T11:44:53.030Z,2.72
2023-05-10T11:47:42.907Z,3.00
2023-05-10T11:50:35.188Z,3.00
2023-05-10T11:53:24.798Z,3.17
2023-05-10T11:56:13.415Z,3.25
2023-05-10T11:59:02.996Z,3.92
2023-05-10T12:01:50.630Z,3.53
2023-05-10T12:04:38.629Z,3.65
2023-05-10T12:07:28.057Z,3.72
2023-05-10T12:10:16.615Z,3.65
2023-05-10T12:13:04.348Z,4.35
2023-05-10T12:15:51.904Z,3.67
2023-05-10T12:18:43.829Z,3.80
2023-05-10T12:21:31.913Z,3.63
2023-05-10T12:24:20.351Z,3.00
2023-05-10T12:27:10.348Z,3.58
2023-05-10T12:30:01.398Z,3.25
2023-05-10T12:32:49.184Z,3.55
2023-05-10T12:35:51.568Z,3.65
2023-05-10T12:38:49.873Z,3.65
2023-05-10T12:41:37.445Z,3.05
2023-05-10T12:44:24.953Z,3.28
2023-05-10T12:47:12.446Z,3.22
2023-05-10T12:50:01.955Z,3.10
2023-05-10T12:52:49.450Z,4.13
2023-05-10T12:55:37.186Z,3.00
2023-05-10T12:58:34.815Z,3.78
2023-05-10T13:01:23.513Z,3.35
2023-05-10T13:04:11.213Z,3.20
2023-05-10T13:07:00.014Z,2.85
2023-05-10T13:09:47.543Z,3.28
2023-05-10T13:12:35.279Z,3.40
2023-05-10T13:15:23.338Z,3.20
2023-05-10T13:18:11.157Z,3.45
2023-05-10T13:20:58.776Z,3.15
2023-05-10T13:23:47.703Z,3.20
2023-05-10T13:26:35.518Z,3.17
2023-05-10T13:29:23.749Z,2.30
2023-05-10T13:32:11.313Z,3.65
2023-05-10T13:34:58.893Z,3.05
2023-05-10T13:37:46.426Z,3.30
2023-05-10T13:40:33.950Z,2.88
2023-05-10T13:43:21.510Z,3.50
2023-05-10T13:46:09.114Z,3.65
2023-05-10T13:48:56.591Z,3.03
2023-05-10T13:51:44.857Z,2.90
2023-05-10T13:54:32.674Z,3.33
2023-05-10T13:57:20.549Z,2.97
2023-05-10T14:00:09.153Z,3.33
2023-05-10T14:02:56.841Z,2.92
2023-05-10T14:05:46.050Z,3.35
2023-05-10T14:08:33.487Z,3.10
2023-05-10T14:11:22.714Z,3.42
2023-05-10T14:14:12.732Z,3.03
2023-05-10T14:17:00.625Z,2.95
2023-05-10T14:19:48.367Z,2.95
2023-05-10T14:22:36.481Z,3.33
2023-05-10T14:25:24.923Z,3.30
2023-05-10T14:28:13.405Z,2.97
2023-05-10T14:31:01.008Z,3.00
2023-05-10T14:33:49.033Z,2.58
2023-05-10T14:36:36.568Z,2.25
2023-05-10T14:39:24.671Z,2.78
2023-05-10T14:42:13.278Z,2.65
2023-05-10T14:45:00.828Z,2.70
2023-05-10T14:47:48.396Z,2.75
2023-05-10T14:50:37.470Z,3.20
2023-05-10T14:53:25.287Z,2.75
2023-05-10T14:56:12.789Z,3.13
2023-05-10T14:59:01.316Z,3.22
2023-05-10T15:01:49.303Z,2.92
2023-05-10T15:04:37.532Z,3.03
2023-05-10T15:07:26.218Z,3.00
2023-05-10T15:10:15.217Z,2.80
2023-05-10T15:13:04.891Z,3.30
2023-05-10T15:15:52.630Z,2.67
2023-05-10T15:18:40.294Z,3.53
2023-05-10T15:21:28.638Z,2.85
2023-05-10T15:24:16.231Z,3.55
2023-05-10T15:27:03.888Z,3.15
2023-05-10T15:29:51.624Z,3.53
2023-05-10T15:32:41.219Z,2.90
2023-05-10T15:35:29.296Z,2.85
2023-05-10T15:38:16.798Z,3.30
2023-05-10T15:41:04.509Z,3.83
2023-05-10T15:43:52.116Z,2.83
2023-05-10T15:46:39.693Z,3.45
2023-05-10T15:49:27.250Z,3.00
2023-05-10T15:52:14.784Z,4.32
2023-05-10T15:55:02.330Z,3.58
2023-05-10T15:57:50.043Z,3.45
2023-05-10T16:00:37.620Z,3.13
2023-05-10T16:03:25.550Z,3.00
2023-05-10T16:06:13.662Z,3.60
2023-05-10T16:09:01.513Z,5.22
2023-05-10T16:11:49.151Z,3.20
2023-05-10T16:14:36.816Z,2.75
2023-05-10T16:17:24.370Z,2.78
2023-05-10T16:20:12.211Z,2.20
2023-05-10T16:23:07.420Z,3.30
2023-05-10T16:25:58.014Z,2.97
2023-05-10T16:28:49.050Z,2.88
2023-05-10T16:31:37.456Z,2.83
2023-05-10T16:34:25.419Z,3.10
2023-05-10T16:37:13.089Z,2.63
2023-05-10T16:40:00.717Z,3.13
2023-05-10T16:42:48.298Z,2.60
2023-05-10T16:45:36.090Z,2.80
2023-05-10T16:48:23.998Z,3.25
2023-05-10T16:51:11.529Z,2.58
2023-05-10T16:53:59.108Z,3.25
2023-05-10T16:56:46.729Z,3.22
2023-05-10T16:59:34.320Z,2.92
2023-05-10T17:02:23.129Z,2.60
2023-05-10T17:05:11.045Z,3.25
2023-05-10T17:07:58.875Z,2.67
2023-05-10T17:10:46.624Z,3.03
2023-05-10T17:13:34.456Z,2.55
2023-05-10T17:16:22.460Z,3.03
2023-05-10T17:19:10.344Z,2.65
2023-05-10T17:21:58.035Z,2.85
2023-05-10T17:24:46.639Z,3.35
2023-05-10T17:27:34.257Z,3.35
2023-05-10T17:30:26.411Z,3.42
2023-05-10T17:33:13.964Z,3.20
2023-05-10T17:36:01.541Z,3.53
2023-05-10T17:38:49.705Z,2.97
2023-05-10T17:41:37.306Z,3.20
2023-05-10T17:44:26.083Z,2.70
2023-05-10T17:47:13.621Z,3.10
2023-05-10T17:50:01.304Z,3.95
2023-05-10T17:52:48.868Z,2.92
2023-05-10T17:55:36.465Z,3.30
2023-05-10T17:58:24.008Z,3.03
2023-05-10T18:01:11.557Z,2.60
2023-05-10T18:03:59.227Z,2.80
2023-05-10T18:06:46.757Z,3.03
2023-05-10T18:09:34.350Z,3.20
2023-05-10T18:12:34.153Z,3.30
2023-05-10T18:15:21.980Z,2.95
2023-05-10T18:18:11.011Z,2.65
2023-05-10T18:20:58.599Z,2.95
2023-05-10T18:23:46.240Z,3.60
2023-05-10T18:26:33.754Z,3.40
2023-05-10T18:29:21.294Z,2.58
2023-05-10T18:32:08.854Z,3.28
2023-05-10T18:34:57.633Z,3.22
2023-05-10T18:37:45.242Z,2.60
2023-05-10T18:40:33.020Z,1.77
2023-05-10T18:43:20.534Z,2.75
2023-05-10T18:46:08.385Z,2.53
2023-05-10T18:48:56.149Z,3.47
2023-05-10T18:51:43.654Z,2.58
2023-05-10T18:54:31.296Z,3.20
2023-05-10T18:57:18.946Z,2.58
2023-05-10T19:00:13.334Z,3.40
2023-05-10T19:03:00.931Z,2.80
2023-05-10T19:05:49.087Z,2.08
2023-05-10T19:08:36.664Z,2.38
2023-05-10T19:11:24.230Z,2.58
2023-05-10T19:14:11.972Z,2.83
2023-05-10T19:17:01.464Z,2.17
2023-05-10T19:19:49.787Z,3.35
2023-05-10T19:22:54.247Z,2.45
2023-05-10T19:25:46.813Z,1.70
2023-05-10T19:28:34.585Z,1.50
2023-05-10T19:31:22.378Z,1.33
2023-05-10T19:34:09.998Z,1.55
2023-05-10T19:36:58.646Z,1.52
2023-05-10T19:39:46.286Z,1.45
2023-05-10T19:42:33.850Z,1.48
2023-05-10T19:45:21.403Z,1.30
2023-05-10T19:48:09.291Z,1.00
2023-05-10T19:51:02.865Z,1.25
2023-05-10T19:53:50.481Z,1.38
2023-05-10T19:56:38.059Z,1.20
2023-05-10T19:59:25.685Z,1.30
2023-05-10T20:02:13.228Z,1.30
2023-05-10T20:05:00.679Z,1.38
2023-05-10T20:07:48.251Z,1.20
2023-05-10T20:10:35.740Z,1.38
2023-05-10T20:13:23.366Z,1.60
2023-05-10T20:16:11.004Z,1.38
2023-05-10T20:18:58.656Z,1.25
2023-05-10T20:21:46.171Z,1.50
2023-05-10T20:24:33.730Z,1.92
2023-05-10T20:27:21.295Z,1.35
2023-05-10T20:30:10.750Z,1.58
2023-05-10T20:32:58.295Z,2.10
2023-05-10T20:35:45.913Z,1.20
2023-05-10T20:38:33.491Z,1.80
2023-05-10T20:41:21.160Z,1.20
2023-05-10T20:44:08.974Z,1.63
2023-05-10T20:46:56.590Z,1.83
2023-05-10T20:49:44.414Z,1.63
2023-05-10T20:52:31.948Z,1.63
2023-05-10T20:55:20.954Z,1.85
2023-05-10T20:58:08.412Z,1.83
2023-05-10T21:00:55.942Z,1.85
2023-05-10T21:03:43.417Z,1.70
2023-05-10T21:06:32.133Z,1.58
2023-05-10T21:09:19.716Z,1.65
2023-05-10T21:12:09.283Z,2.22
2023-05-10T21:14:56.751Z,1.73
2023-05-10T21:17:45.831Z,2.15
2023-05-10T21:20:33.392Z,2.53
2023-05-10T21:23:20.947Z,2.20
2023-05-10T21:26:08.581Z,2.17
2023-05-10T21:28:56.552Z,2.90
2023-05-10T21:31:44.135Z,2.10
2023-05-10T21:34:31.650Z,2.17
2023-05-10T21:37:19.301Z,2.55
2023-05-10T21:40:07.984Z,2.17
2023-05-10T21:42:55.580Z,2.15
2023-05-10T21:45:43.094Z,2.28
2023-05-10T21:48:31.056Z,1.95
2023-05-10T21:51:18.595Z,2.10
2023-05-10T21:54:06.329Z,2.58
2023-05-10T21:56:53.995Z,2.50
2023-05-10T21:59:41.605Z,2.33
2023-05-10T22:02:29.577Z,2.90
2023-05-10T22:05:17.463Z,2.50
2023-05-10T22:08:07.997Z,2.50
2023-05-10T22:10:55.562Z,2.47
2023-05-10T22:13:43.045Z,2.63
2023-05-10T22:16:31.186Z,2.72
2023-05-10T22:19:18.685Z,2.70
2023-05-10T22:22:06.442Z,2.67
2023-05-10T22:24:53.986Z,2.80
2023-05-10T22:27:41.574Z,2.60
2023-05-10T22:30:30.966Z,2.67
2023-05-10T22:33:19.941Z,2.22
2023-05-10T22:36:08.445Z,2.40
2023-05-10T22:38:55.996Z,2.58
2023-05-10T22:41:43.531Z,2.30
2023-05-10T22:44:31.571Z,2.00
2023-05-10T22:47:19.106Z,1.38
2023-05-10T22:50:08.022Z,1.95
2023-05-10T22:52:55.520Z,2.58
2023-05-10T22:55:43.258Z,1.95
2023-05-10T22:58:31.968Z,1.92
2023-05-10T23:01:19.651Z,1.70
2023-05-10T23:04:07.248Z,2.50
2023-05-10T23:06:54.728Z,2.25
2023-05-10T23:09:42.208Z,1.90
2023-05-10T23:12:31.492Z,1.83
2023-05-10T23:15:19.197Z,2.63
2023-05-10T23:18:06.926Z,1.75
2023-05-10T23:20:54.449Z,2.17
2023-05-10T23:23:43.347Z,2.47
2023-05-10T23:26:30.867Z,2.40
2023-05-10T23:29:18.403Z,2.08
2023-05-10T23:32:06.123Z,2.33
2023-05-10T23:34:53.923Z,1.85
2023-05-10T23:37:42.844Z,1.50
2023-05-10T23:40:30.467Z,1.80
2023-05-10T23:43:19.833Z,1.60
2023-05-10T23:46:07.455Z,1.30
2023-05-10T23:48:55.007Z,1.42
2023-05-10T23:55:15.565Z,1.20
2023-05-10T23:58:03.082Z,1.30
